Terminal Aerodrome Forecast
Issued by NWS

Home | Current Version | Previous Version | Text Only | Print | Product List | Glossary On
Versions: 1 2 3 4 5 6 7 8 9 10 11 12 13 14 15 16 17 18 19
996
FTUS46 KSEW 261733
TAFHQM
TAF
KHQM 261733Z 2618/2718 07012KT 5SM -RA BR SCT015 OVC030
      TEMPO 2618/2622 2SM -RA BKN015 OVC025
     FM262200 15014G24KT 5SM -SHRA BKN015 OVC030
     FM270000 21012KT P6SM -SHRA BKN020 OVC035
     FM270600 16009KT P6SM -SHRA BKN020 BKN035=

USA.gov is the U.S. government's official web portal to all federal, state and local government web resources and services.